createdAt,value
2018-06-21T10:45:09.401Z,2400
2018-06-21T10:55:25.308Z,2600
2018-06-21T11:05:40.164Z,2475
2018-06-21T11:15:55.019Z,2815
2018-06-21T11:26:10.554Z,2565
2018-06-21T11:36:25.136Z,905
2018-06-21T11:46:40.520Z,2160
2018-06-21T11:56:56.082Z,2290
2018-06-21T12:07:11.247Z,2330
2018-06-21T12:17:27.093Z,655
2018-06-21T12:27:41.128Z,1745
2018-06-21T12:37:56.412Z,2145
2018-06-21T12:48:11.454Z,615
2018-06-21T12:58:26.450Z,2095
2018-06-21T13:08:41.713Z,1810
2018-06-21T13:18:56.477Z,1600
2018-06-21T13:29:11.200Z,1545
2018-06-21T13:39:27.135Z,1350
2018-06-21T13:49:42.163Z,870
2018-06-21T13:59:56.868Z,1075
2018-06-21T14:10:11.859Z,520
2018-06-21T14:20:27.122Z,1535
2018-06-21T14:30:41.021Z,1800
2018-06-21T14:40:56.074Z,795
2018-06-21T14:51:11.472Z,2255
2018-06-21T15:01:26.493Z,430
2018-06-21T15:11:42.135Z,450
2018-06-21T15:21:57.346Z,350
2018-06-21T15:32:12.925Z,1665
2018-06-21T15:42:27.549Z,1435
2018-06-21T15:52:41.545Z,1700
2018-06-21T16:02:55.675Z,1105
2018-06-21T16:13:11.013Z,485
2018-06-21T16:23:26.020Z,1160
2018-06-21T16:33:41.186Z,325
2018-06-21T16:43:56.175Z,675
2018-06-21T16:54:10.364Z,525
2018-06-21T17:04:25.729Z,360
2018-06-21T17:14:41.156Z,335
2018-06-21T17:24:54.933Z,325
2018-06-21T17:35:10.244Z,195
2018-06-21T17:45:25.431Z,190
2018-06-21T17:55:40.268Z,110
2018-06-21T18:05:55.968Z,110
2018-06-21T18:16:10.023Z,200
2018-06-21T18:26:25.330Z,185
2018-06-21T18:36:39.938Z,160
2018-06-21T18:46:55.009Z,125
2018-06-21T18:57:10.629Z,75
2018-06-21T19:07:24.433Z,55
2018-06-21T19:17:39.781Z,45
2018-06-21T19:27:54.869Z,45
2018-06-21T19:38:09.328Z,30
2018-06-21T19:48:24.194Z,15
2018-06-21T19:58:38.637Z,5
2018-06-21T20:08:53.926Z,0
2018-06-21T20:19:08.987Z,0
2018-06-21T20:29:23.867Z,0
2018-06-21T20:39:39.223Z,0
2018-06-21T20:49:54.310Z,0
2018-06-21T21:00:09.213Z,0
2018-06-21T21:10:23.146Z,0
2018-06-21T21:20:37.363Z,0
2018-06-21T21:30:52.352Z,0
2018-06-21T21:41:07.192Z,0
2018-06-21T21:51:22.030Z,0
2018-06-21T22:01:37.034Z,0
2018-06-21T22:11:50.972Z,0
2018-06-21T22:22:04.852Z,0
2018-06-21T22:32:18.933Z,0
2018-06-21T22:42:34.160Z,0
2018-06-21T22:52:49.452Z,0
2018-06-21T23:03:04.641Z,0
2018-06-21T23:13:18.543Z,0
2018-06-21T23:23:32.352Z,0
2018-06-21T23:33:46.124Z,0
2018-06-21T23:44:00.824Z,0
2018-06-21T23:54:14.919Z,0
